Rafael Lopez

Chief Scout - Santa Fe
25 Nov 2027
Thursday
Process

Personality

Adaptability (9) Ambition (7) Controversy (1) Loyalty (17) Pressure (10) Professionalism (11) Sportsmanship (4) Temperament (5)

Profile

Coaching Style Democratic
License National B
Determination 10
Man Management 4
Motivating 4
Discipline 11
Job Satisfaction
100%
Fatigue
0%
Role Chief Scout
Wage 94.1K p/w
Contract 14.03.2028

Performance

Behaviour Good
Training Effectiveness
46%
Player Development
55%
Injury Prevention
30%
Tactical Implementation
45%

Recent Events

Attended a recruitment meeting now
Attended a recruitment meeting now
Recommended a transfer target now
Recommended a transfer target now
Recommended a transfer target now
Recommended a transfer target 7d ago
Attended a recruitment meeting 7d ago
Attended a recruitment meeting 7d ago

Currently Monitoring

206
Player Club Status Ability Confidence Watched Last Observed Latest Vote
José Luis Caicedo Barranquilla Active 139 / 124 48% 1 28.06.2027 -
Samuel Lucero Defensa y Justicia Negotiating 114 / 110 40% 1 14.06.2027 Needs More Info
Jofre Torrents Ajax Active 138 / 143 40% 3 07.06.2027 -
Mfundo Vilakazi Kaizer Chiefs Active 114 / 111 40% 6 07.06.2027 -
David Valencia Alianza Petrolera Active 114 / 145 40% 1 04.06.2027 -
Andrés Amaya Fortaleza CEIF Active 116 / 107 48% 1 01.06.2027 -
Christos Mouzakitis Hull City Active 130 / 121 40% 9 30.05.2027 -
Ernie Weaver AFC Wimbledon Active 90 / 119 40% 5 29.05.2027 -
Freddy Murillo Valencia Active 108 / 101 40% 2 29.05.2027 -
Gilberto Mora Atlético Madrid Active 119 / 157 40% 1 29.05.2027 -
Daniel Vernattus Metalist Active 75 / 94 40% 2 28.05.2027 -
Jesús Rodríguez Como Active 129 / 134 40% 2 26.05.2027 -
Amaury Morales Pumas UNAM Active 108 / 110 40% 1 25.05.2027 -
Lander Astiazarán Real Sociedad Active 108 / 101 40% 5 24.05.2027 -
Sascha Britschgi Padova Active 105 / 109 40% 1 22.05.2027 -
Percy Jali Free State Stars Active 96 / 101 40% 3 19.05.2027 -
Jan Bürger Gillingham Active 127 / 111 40% 1 19.05.2027 -
Kamarni Ryan Burton Albion Active 78 / 116 40% 1 18.05.2027 -
Christ Inao Oulaï Fiorentina Active 149 / 146 40% 1 16.05.2027 -
Lynden Edhart Cambuur Active 115 / 124 40% 1 16.05.2027 -
Ibrahim Maza Bayer Leverkusen Active 163 / 155 40% 5 15.05.2027 -
Rayan Bournemouth Active 146 / 154 40% 1 15.05.2027 -
Leandro Martins Benfica Active 84 / 113 40% 1 14.05.2027 -
Joel McGregor Swindon Town Active 85 / 101 40% 2 13.05.2027 -
Juan Giménez Celta Active 102 / 131 40% 1 13.05.2027 -
Josh King Chelsea Active 137 / 132 40% 4 11.05.2027 -
Shea Lacey Wolverhampton Active 117 / 123 40% 4 11.05.2027 -
Samuele di Benedetto Bari Active 111 / 113 40% 1 11.05.2027 -
Davide Bartesaghi AC Milan Active 127 / 129 40% 1 09.05.2027 -
Gonçalo Oliveira Benfica Active 108 / 116 40% 1 08.05.2027 -
Monty Batlhabane Polokwane City Active 107 / 96 40% 2 05.05.2027 -
Jayden Addai Como Active 128 / 118 40% 2 05.05.2027 -
Othmane Maamma Watford Active 143 / 118 40% 3 30.04.2027 -
Ben Gannon Doak Bournemouth Active 158 / 150 40% 1 30.04.2027 -
Riley Owen Trento Active 95 / 114 40% 2 29.04.2027 -
Yussif Saidu Zaragoza Active 105 / 112 40% 6 27.04.2027 -
Matías Gómez Granada Active 123 / 126 40% 3 27.04.2027 -
Leo Castledine Middlesbrough Active 116 / 140 40% 3 26.04.2027 -
Kutlwano Letlhaku Ajax Cape Town Active 107 / 109 40% 2 25.04.2027 -
Cyriaque Irié VfL Wolfsburg Active 130 / 122 40% 2 22.04.2027 -
Rodrigo Mora AS Roma Active 145 / 142 40% 2 20.04.2027 -
David Ozoh Derby County Active 138 / 109 40% 2 15.04.2027 -
André Miranda Porto Active 104 / 86 40% 1 13.04.2027 -
Ronwen Phiri Platinum Stars Active 106 / 117 40% 1 12.04.2027 -
Ethan Williams Peterborough United Active 100 / 110 40% 2 10.04.2027 -
Daniel Awuni Aduana Stars Active 93 / 83 40% 1 06.04.2027 -
Kazunari Kita Real Sociedad Active 83 / 95 40% 1 06.04.2027 -
Adam Bakoune Ospitaletto Active 100 / 117 40% 1 06.04.2027 -
James Dornelly Peterborough United Active 117 / 94 40% 3 05.04.2027 -
Jan Virgili Club Brugge Active 139 / 138 40% 1 02.04.2027 -
Calum Agius Crewe Alexandra Active 88 / 114 40% 1 01.04.2027 -
Hazeem Bakre Crawley Town Active 99 / 85 40% 1 31.03.2027 -
Zack Nelson Bromley Active 119 / 112 40% 1 28.03.2027 -
Rocco Vata Watford Active 105 / 122 40% 1 26.03.2027 -
Araphat Mohammed Berekum Chelsea Active 91 / 111 40% 1 22.03.2027 -
Ruan Alanyaspor Active 140 / 133 40% 1 19.03.2027 -
Oscar Schwartau Norwich City Active 111 / 149 40% 2 17.03.2027 -
Antoni Milambo Brentford Active 151 / 142 40% 1 13.03.2027 -
Mamadou Diakhon Club Brugge Active 99 / 111 40% 1 11.03.2027 -
Jayden Luker Barnet Active 91 / 100 40% 1 07.03.2027 -
Israel Reyes CSKA Moscow Active 139 / 136 40% 2 23.02.2027 -
Nadir Zortea Bologna Active 149 / 142 40% 2 23.02.2027 -
Juanlu Bournemouth Active 137 / 136 40% 2 22.02.2027 -
Zak Swanson Bradford City Active 110 / 104 40% 1 22.02.2027 -
Bosun Lawal Stoke City Active 132 / 127 40% 1 16.02.2027 -
Ronnie Edwards Queens Park Rangers Active 114 / 141 40% 1 16.02.2027 -
Leif Davis Ipswich Town Active 148 / 125 40% 1 15.02.2027 -
Matisse Samoise KAA Gent Active 113 / 140 40% 1 14.02.2027 -
Jacques Ekomié Wrexham Active 120 / 119 40% 2 13.02.2027 -
Josh Tymon Swansea City Active 119 / 129 40% 3 12.02.2027 -
Alessandro Buongiorno Sassuolo Active 141 / 162 40% 1 10.02.2027 -
Christian Krasnodar Active 138 / 129 40% 5 09.02.2027 -
Robert-Jan Vanwesemael Sint-Truiden Active 136 / 102 40% 1 09.02.2027 -
Luke McNally Bristol City Active 116 / 122 40% 1 08.02.2027 -
Jordan Beyer Burnley Active 131 / 145 40% 1 08.02.2027 -
Nicolás Fernández Mercau Shakhtar Active 132 / 131 40% 1 06.02.2027 -
Milan van Ewijk Mansfield Town Active 148 / 139 40% 1 02.02.2027 -
Teden Mengi Luton Town Active 114 / 128 40% 2 01.02.2027 -
Kellen Fisher Norwich City Active 109 / 111 40% 1 31.01.2027 -
Mandla Erasmus SuperSport United Active 129 / 131 40% 1 31.01.2027 -
Lucas Da Cunha Como Active 147 / 130 40% 1 28.01.2027 -
Juan Mosquera Sheffield Wednesday Active 136 / 129 40% 1 25.01.2027 -
Max Bird Birmingham Active 117 / 113 40% 1 24.01.2027 -
Toby Collyer West Bromwich Albion Active 151 / 118 40% 1 20.01.2027 -
Bali Mumba Huddersfield Town Active 106 / 121 40% 2 19.01.2027 -
Di'Shon Bernard Sheffield Wednesday Active 118 / 118 40% 1 18.01.2027 -
Japhet Tanganga Sheffield United Active 127 / 122 40% 1 15.01.2027 -
Francisco Álvarez Argentinos Juniors Active 112 / 121 40% 1 13.01.2027 -
Joaquín García Vélez Active 120 / 132 40% 2 10.01.2027 -
Nobel Mendy Hull City Active 136 / 123 40% 1 09.01.2027 -
Facundo Mansilla Central Córdoba SdE Active 105 / 124 40% 1 06.01.2027 -
Tomás Ribeiro Cultural Leonesa Active 137 / 125 40% 1 06.01.2027 -
Williams Manyama SuperSport United Active 125 / 129 40% 2 04.01.2027 -
Pelle Mattsson Norwich City Active 126 / 104 40% 1 02.01.2027 -
Franco Ibarra Rosario Central Active 120 / 123 40% 2 01.01.2027 -
Nicolas Madsen Queens Park Rangers Active 133 / 110 40% 1 01.01.2027 -
Nazareno Colombo Racing Club Active 139 / 135 40% 1 29.12.2026 Needs More Info
Victor Parada Spartak Moscow Active 146 / 138 40% 1 29.12.2026 -
Alex Vigo Independiente Rivadavia Active 110 / 119 40% 1 28.12.2026 -
Santiago González Tigre Active 122 / 125 40% 1 22.12.2026 -
Oli McBurnie Hull City Active 119 / 118 40% 2 16.12.2026 -
Nicolò Tresoldi Club Brugge Active 133 / 130 40% 2 15.12.2026 -
Patson Daka Leicester City Active 137 / 119 40% 1 15.12.2026 -
Will Lankshear Middlesbrough Active 134 / 121 40% 1 14.12.2026 -
Enzo Avaro Odd Active 124 / 120 40% 1 03.12.2026 -
Konstantin Tyukavin Inter Negotiating 132 / 133 66% 1 01.12.2026 Approve
Toni Fruk KV Mechelen Negotiating 132 / 133 66% 1 01.12.2026 Approve
Marcel Ruiz RC Lens Negotiating 140 / 141 66% 1 01.12.2026 Approve
Ruben van Bommel Ferencvaros Active 138 / 142 40% 1 30.11.2026 -
Tomás Silva Platense Active 135 / 115 40% 1 28.11.2026 -
Tiago Palacios Estudiantes Active 120 / 129 40% 2 27.11.2026 -
Rubén Duarte Legia Active 145 / 144 40% 1 27.11.2026 -
Gastón Lodico Racing Club Active 120 / 129 40% 2 26.11.2026 -
Joaquín Gho Argentinos Juniors Active 115 / 131 40% 2 26.11.2026 -
Juan Infante Atlético Tucumán Active 123 / 121 40% 4 25.11.2026 -
Alan Lescano Argentinos Juniors Active 124 / 120 40% 3 24.11.2026 -
Franco Zapiola Platense Active 127 / 126 40% 1 24.11.2026 -
Rodrigo Echeverría Leon Active 141 / 120 40% 5 22.11.2026 -
Bryan González Guadalajara Active 137 / 117 40% 1 22.11.2026 -
Jesús Ricardo Angulo Toluca Active 147 / 122 40% 2 21.11.2026 Needs More Info
Cristian Calderón Pumas UNAM Active 113 / 117 40% 2 20.11.2026 -
Marcelo Estigarribia Unión de Santa Fe Active 121 / 126 40% 3 20.11.2026 -
Jesús Angulo Tigres Active 125 / 152 40% 5 18.11.2026 -
Oussama Idrissi Pachuca Active 155 / 137 40% 9 18.11.2026 Monitor
Nicolás Sumavil Platense Active 129 / 122 40% 1 18.11.2026 -
Brian Gutiérrez Guadalajara Active 107 / 120 40% 3 16.11.2026 -
Alejandro Zendejas Club America Active 125 / 158 40% 4 13.11.2026 -
Bamba Dieng Crvena Zvezda Active 131 / 108 40% 1 12.11.2026 -
César Ibáñez Huracán Active 132 / 117 40% 1 08.11.2026 -
Agustín Palavecino Cruz Azul Active 142 / 122 40% 6 07.11.2026 -
Orbelín Pineda Monterrey Active 124 / 139 40% 2 05.11.2026 -
Hany Mukhtar Spezia Active 146 / 146 40% 1 05.11.2026 -
Carlos Gruezo Santos Laguna Active 130 / 106 40% 2 03.11.2026 -
Juninho Pumas UNAM Active 135 / 112 40% 3 03.11.2026 -
Gastón Fernández Chacarita Juniors Active 97 / 97 40% 1 03.11.2026 -
Erick Reyes Toluca Active 140 / 155 40% 2 02.11.2026 -
Michael Cooper Sheffield United Active 128 / 112 40% 1 02.11.2026 -
Ramiro Ruiz Rodríguez Atlético Tucumán Active 130 / 109 40% 2 01.11.2026 -
Iker Benito Queretaro Active 105 / 143 40% 2 30.10.2026 -
Fernando Valenzuela Queretaro Active 115 / 117 40% 2 30.10.2026 -
Jamie Cumming Oxford United Active 99 / 109 40% 1 30.10.2026 -
Luís Esteves Atlas Active 138 / 119 40% 1 28.10.2026 -
Marcelino Moreno Lanús Active 129 / 139 40% 2 27.10.2026 -
Francisco González Metilli Belgrano Active 113 / 137 40% 2 24.10.2026 -
Jhonatan Candia Barracas Central Active 135 / 117 40% 2 23.10.2026 -
Matías Cóccaro Newell's Old Boys Active 116 / 114 40% 1 23.10.2026 -
Wessam Abou Ali Columbus Crew Active 123 / 139 40% 1 23.10.2026 -
Rômulo Tigres Active 105 / 115 40% 2 21.10.2026 -
Facundo Cambeses Racing Club Active 136 / 123 40% 2 21.10.2026 -
Agustín Lastra Estudiantes Active 101 / 98 40% 1 21.10.2026 -
Joaquín Bigo Tristán Suárez Active 117 / 95 40% 2 18.10.2026 -
Diego Rossi Monterrey Active 117 / 129 40% 2 14.10.2026 -
Joaquim Tigres Active 118 / 146 40% 1 14.10.2026 -
Santiago Núñez Estudiantes Active 112 / 137 40% 1 14.10.2026 -
Ezequiel Bullaude Santos Laguna Active 109 / 112 40% 1 14.10.2026 -
Lautaro Petruchi Gimnasia y Esgrima Active 128 / 125 40% 1 13.10.2026 -
Agustín Buffa Wanderers Active 110 / 90 40% 1 13.10.2026 -
Jordi Cortizo Leon Active 104 / 144 40% 1 09.10.2026 -
Efraín Álvarez Guadalajara Active 142 / 140 40% 1 07.10.2026 -
Matías Reali San Lorenzo Active 131 / 123 40% 1 06.10.2026 -
Luis Ingolotti Atlético Tucumán Active 111 / 115 40% 1 04.10.2026 -
Mauro Casoli Talleres Active 109 / 103 40% 1 04.10.2026 -
Pedro Vite Pumas UNAM Active 116 / 110 40% 1 04.10.2026 -
Adnan Courtois KV Oostende Active 137 / 123 40% 1 03.10.2026 -
Tomás O'Connor Gimnasia y Esgrima Active 108 / 137 40% 1 03.10.2026 -
Facundo Zabala Independiente Active 129 / 135 40% 1 29.09.2026 -
Richard Martinez Veracruz Active 142 / 132 40% 1 27.09.2026 -
Joaquín Silva Plaza Colonia Active 111 / 102 40% 1 25.09.2026 -
Juan Pablo Domínguez Leon Active 118 / 131 40% 2 23.09.2026 -
Ulises Ortegoza Talleres Active 109 / 110 40% 1 23.09.2026 -
Nicolás Castro Toluca Active 108 / 123 40% 1 22.09.2026 -
Jaminton Campaz Rosario Central Active 111 / 126 40% 1 19.09.2026 -
Omar Carabalí Shonan Bellmare Active 130 / 102 40% 1 19.09.2026 -
Santiago Silva CFR Cluj Active 99 / 138 40% 1 19.09.2026 -
Antony Alonso Deportivo Riestra Active 113 / 120 40% 1 18.09.2026 -
Rafael Navarro St. Louis CITY SC Active 148 / 123 40% 1 18.09.2026 -
Carlos Moreno Pachuca Active 120 / 126 40% 1 16.09.2026 -
Iván Rodríguez Leon Active 145 / 120 40% 1 15.09.2026 -
Manuel Ospina Cortulua Active 132 / 113 40% 1 11.09.2026 Needs More Info
Kein Sato FC Tokyo Active 117 / 138 40% 1 11.09.2026 -
Richard Ledezma Guadalajara Active 122 / 125 40% 3 09.09.2026 -
Adalberto Carrasquilla Pumas UNAM Active 105 / 129 40% 1 09.09.2026 -
Dayne St. Clair Inter Miami CF Active 107 / 116 40% 1 09.09.2026 -
Kenedy Pachuca Active 133 / 120 40% 1 07.09.2026 -
Tomás Ahumada Audax Italiano Active 106 / 109 40% 1 07.09.2026 -
César Huerta Pumas UNAM Active 120 / 120 40% 1 04.09.2026 -
Renato Solís Sporting Cristal Active 112 / 130 40% 1 03.09.2026 -
Bradley Mabunda SuperSport United Active 96 / 94 40% 1 02.09.2026 -
Nicolás Fonseca Leon Active 102 / 128 40% 2 31.08.2026 -
Matt Freese New York City Active 123 / 128 40% 1 30.08.2026 -
Ángel González Libertad Active 108 / 99 40% 1 29.08.2026 -
Matías Dufour Sportivo Trinidense Active 116 / 96 40% 1 28.08.2026 -
Franco Cristaldo Talleres Active 138 / 129 40% 1 24.08.2026 -
Jeremy Márquez Cruz Azul Active 112 / 140 40% 1 23.08.2026 -
Lautaro Amadé Defensa y Justicia Active 105 / 111 40% 3 22.08.2026 -
Beycker Velásquez Zamora Active 105 / 89 40% 2 21.08.2026 -
Justo Giani Universidad Catolica Active 113 / 110 40% 1 18.08.2026 -
Víctor Guzmán Toluca Active 142 / 115 40% 1 14.08.2026 -
Salvador Reyes Leon Active 100 / 142 40% 1 12.08.2026 -
Enzo Giménez Queretaro Active 144 / 124 40% 1 09.08.2026 -
César Araújo Tigres Active 118 / 110 40% 1 09.08.2026 -
Víctor Dávila Club America Active 104 / 137 40% 1 07.08.2026 -
Ramiro Sordo Santos Laguna Active 124 / 131 40% 1 06.08.2026 -
Matías Fernández Colo-Colo Active 122 / 115 40% 1 06.08.2026 -
Luis Romo Guadalajara Active 115 / 141 40% 1 05.08.2026 -
Federico Viñas Toluca Active 126 / 132 40% 1 01.08.2026 -